createdAt,value
2018-09-18T00:01:32.330Z,18.60
2018-09-18T00:04:01.602Z,18.70
2018-09-18T00:06:30.757Z,18.90
2018-09-18T00:08:59.901Z,18.90
2018-09-18T00:11:29.041Z,19.00
2018-09-18T00:13:59.115Z,18.90
2018-09-18T00:16:28.255Z,19.00
2018-09-18T00:18:57.405Z,18.90
2018-09-18T00:21:26.590Z,19.00
2018-09-18T00:23:55.730Z,18.90
2018-09-18T00:26:25.576Z,18.80
2018-09-18T00:28:54.733Z,18.80
2018-09-18T00:31:23.999Z,18.80
2018-09-18T00:33:53.122Z,18.70
2018-09-18T00:36:22.503Z,18.50
2018-09-18T00:38:51.613Z,18.40
2018-09-18T00:41:20.875Z,18.20
2018-09-18T00:43:49.985Z,18.10
2018-09-18T00:46:19.127Z,18.10
2018-09-18T00:48:48.323Z,18.40
2018-09-18T00:51:17.555Z,18.30
2018-09-18T00:53:46.680Z,18.10
2018-09-18T00:56:15.805Z,18.20
2018-09-18T00:58:44.998Z,18.20
2018-09-18T01:01:14.101Z,18.30
2018-09-18T01:03:43.246Z,18.10
2018-09-18T01:06:12.645Z,18.20
2018-09-18T01:08:41.788Z,18.40
2018-09-18T01:11:10.947Z,18.20
2018-09-18T01:13:40.094Z,18.00
2018-09-18T01:16:09.245Z,18.20
2018-09-18T01:18:40.220Z,18.10
2018-09-18T01:21:10.004Z,18.10
2018-09-18T01:23:39.229Z,18.00
2018-09-18T01:26:08.414Z,18.00
2018-09-18T01:28:37.681Z,17.90
2018-09-18T01:31:06.809Z,18.00
2018-09-18T01:33:36.199Z,17.70
2018-09-18T01:36:05.510Z,18.00
2018-09-18T01:38:34.674Z,18.00
2018-09-18T01:41:03.822Z,18.10
2018-09-18T01:43:32.976Z,18.10
2018-09-18T01:46:02.168Z,17.90
2018-09-18T01:48:31.269Z,18.00
2018-09-18T01:51:00.409Z,17.90
2018-09-18T01:53:29.555Z,17.70
2018-09-18T01:55:58.670Z,17.60
2018-09-18T01:58:27.808Z,17.70
2018-09-18T02:00:56.948Z,17.80
2018-09-18T02:03:26.099Z,17.70
2018-09-18T02:05:55.209Z,17.90
2018-09-18T02:08:24.354Z,17.90
2018-09-18T02:10:53.529Z,18.00
2018-09-18T02:13:22.639Z,18.10
2018-09-18T02:15:51.776Z,18.20
2018-09-18T02:18:20.931Z,18.20
2018-09-18T02:20:50.162Z,18.10
2018-09-18T02:23:19.303Z,18.20
2018-09-18T02:25:48.410Z,18.10
2018-09-18T02:28:17.549Z,18.10
2018-09-18T02:30:46.657Z,17.90
2018-09-18T02:33:15.918Z,17.90
2018-09-18T02:35:45.098Z,18.00
2018-09-18T02:38:14.188Z,17.90
2018-09-18T02:40:43.337Z,17.80
2018-09-18T02:43:12.504Z,17.80
2018-09-18T02:45:41.801Z,17.80
2018-09-18T02:48:10.922Z,17.60
2018-09-18T02:50:40.081Z,17.70
2018-09-18T02:53:09.202Z,17.70
2018-09-18T02:55:38.321Z,17.80
2018-09-18T02:58:07.429Z,17.60
2018-09-18T03:00:36.536Z,17.60
2018-09-18T03:03:05.680Z,17.70
2018-09-18T03:05:34.806Z,17.80
2018-09-18T03:08:03.914Z,17.80
2018-09-18T03:10:33.008Z,17.90
2018-09-18T03:13:02.115Z,17.90
2018-09-18T03:15:31.466Z,17.90
2018-09-18T03:18:00.658Z,18.00
2018-09-18T03:20:31.032Z,17.90
2018-09-18T03:23:00.118Z,17.80
2018-09-18T03:25:29.250Z,17.80
2018-09-18T03:27:59.083Z,17.60
2018-09-18T03:30:28.281Z,17.40
2018-09-18T03:32:57.501Z,17.30
2018-09-18T03:35:26.639Z,17.10
2018-09-18T03:38:02.153Z,17.20
2018-09-18T03:40:31.554Z,17.20
2018-09-18T03:43:01.024Z,17.00
2018-09-18T03:45:30.129Z,17.10
2018-09-18T03:47:59.322Z,17.30
2018-09-18T03:50:28.506Z,17.50
2018-09-18T03:52:57.613Z,17.50
2018-09-18T03:55:26.814Z,17.60
2018-09-18T03:57:55.970Z,17.60
2018-09-18T04:00:25.070Z,17.70
2018-09-18T04:02:54.262Z,17.50
2018-09-18T04:05:23.370Z,17.50
2018-09-18T04:07:52.495Z,17.40
2018-09-18T04:10:21.606Z,17.40
2018-09-18T04:12:50.715Z,17.20
2018-09-18T04:15:19.863Z,17.00
2018-09-18T04:17:48.998Z,16.90
2018-09-18T04:20:18.177Z,17.00
2018-09-18T04:22:47.295Z,17.10
2018-09-18T04:25:16.405Z,16.80
2018-09-18T04:27:45.876Z,16.60
2018-09-18T04:30:15.101Z,16.70
2018-09-18T04:32:44.273Z,16.80
2018-09-18T04:35:13.405Z,16.80
2018-09-18T04:37:42.534Z,16.90
2018-09-18T04:40:11.703Z,16.80
2018-09-18T04:42:40.861Z,16.90
2018-09-18T04:45:10.206Z,17.00
2018-09-18T04:47:39.341Z,17.10
2018-09-18T04:50:08.519Z,17.20
2018-09-18T04:52:37.769Z,17.20
2018-09-18T04:55:07.068Z,17.10
2018-09-18T04:57:36.985Z,17.20
2018-09-18T05:00:07.884Z,17.30
2018-09-18T05:02:37.525Z,17.30
2018-09-18T05:05:06.744Z,17.30
2018-09-18T05:07:36.085Z,17.10
2018-09-18T05:10:05.253Z,16.80
2018-09-18T05:12:34.398Z,16.80
2018-09-18T05:15:03.563Z,16.70
2018-09-18T05:17:32.726Z,16.60
2018-09-18T05:20:02.239Z,16.60
2018-09-18T05:22:31.396Z,16.70
2018-09-18T05:25:00.586Z,16.90
2018-09-18T05:27:29.711Z,16.90
2018-09-18T05:29:58.855Z,17.10
2018-09-18T05:32:27.962Z,17.40
2018-09-18T05:34:57.159Z,17.50
2018-09-18T05:37:26.422Z,17.60
2018-09-18T05:39:55.573Z,17.60
2018-09-18T05:42:24.726Z,17.60
2018-09-18T05:44:53.927Z,17.70
2018-09-18T05:47:23.062Z,17.70
2018-09-18T05:49:52.296Z,17.80
2018-09-18T05:52:21.452Z,18.00
2018-09-18T05:54:50.616Z,17.90
2018-09-18T05:57:19.746Z,17.80
2018-09-18T05:59:48.902Z,17.90
2018-09-18T06:02:18.320Z,17.90
2018-09-18T06:04:47.426Z,18.10
2018-09-18T06:07:16.638Z,18.30
2018-09-18T06:09:45.817Z,18.20
2018-09-18T06:12:15.074Z,18.30
2018-09-18T06:14:44.255Z,18.10
2018-09-18T06:17:13.378Z,18.20
2018-09-18T06:19:42.743Z,18.10
2018-09-18T06:22:11.950Z,18.20
2018-09-18T06:24:41.174Z,18.00
2018-09-18T06:27:10.373Z,17.60
2018-09-18T06:29:39.539Z,17.90
2018-09-18T06:32:08.717Z,18.00
2018-09-18T06:34:38.031Z,18.00
2018-09-18T06:37:07.253Z,18.20
2018-09-18T06:39:36.386Z,18.30
2018-09-18T06:42:05.550Z,18.40
2018-09-18T06:44:34.719Z,18.30
2018-09-18T06:47:03.904Z,18.40
2018-09-18T06:49:33.095Z,18.30
2018-09-18T06:52:02.305Z,18.30
2018-09-18T06:54:31.517Z,18.20
2018-09-18T06:57:00.575Z,18.10
2018-09-18T06:59:29.715Z,18.20
2018-09-18T07:02:00.975Z,18.30
2018-09-18T07:04:30.608Z,18.30
2018-09-18T07:06:59.797Z,18.20
2018-09-18T07:09:29.078Z,18.20
2018-09-18T07:11:58.246Z,18.20
2018-09-18T07:14:27.441Z,18.20
2018-09-18T07:16:56.626Z,18.30
2018-09-18T07:19:25.837Z,18.40
2018-09-18T07:21:54.999Z,18.50
2018-09-18T07:24:24.148Z,18.70
2018-09-18T07:26:53.348Z,18.70
2018-09-18T07:29:22.655Z,18.90
2018-09-18T07:31:51.798Z,19.10
2018-09-18T07:34:21.000Z,19.30
2018-09-18T07:36:50.405Z,19.40
2018-09-18T07:39:19.575Z,19.40
2018-09-18T07:41:48.743Z,19.30
2018-09-18T07:44:17.917Z,19.30
2018-09-18T07:46:47.094Z,19.40
2018-09-18T07:49:16.274Z,19.30
2018-09-18T07:51:45.500Z,19.40
2018-09-18T07:54:14.737Z,19.30
2018-09-18T07:56:43.905Z,19.40
2018-09-18T07:59:13.052Z,19.60
2018-09-18T08:01:42.258Z,19.70
2018-09-18T08:04:11.451Z,19.80
2018-09-18T08:06:40.674Z,19.90
2018-09-18T08:09:10.810Z,20.00
2018-09-18T08:11:40.186Z,20.10
2018-09-18T08:14:09.334Z,20.30
2018-09-18T08:16:38.518Z,20.50
2018-09-18T08:19:07.662Z,20.60
2018-09-18T08:21:36.924Z,20.70
2018-09-18T08:24:07.070Z,20.90
2018-09-18T08:26:36.217Z,21.00
2018-09-18T08:29:05.423Z,21.20
2018-09-18T08:31:34.664Z,21.40
2018-09-18T08:34:03.783Z,21.60
2018-09-18T08:36:33.074Z,21.80
2018-09-18T08:39:02.281Z,22.10
2018-09-18T08:41:31.374Z,22.20
2018-09-18T08:44:00.781Z,22.40
2018-09-18T08:46:30.658Z,22.60
2018-09-18T08:48:59.808Z,22.50
2018-09-18T08:51:28.985Z,22.50
2018-09-18T08:53:58.206Z,22.60
2018-09-18T08:56:27.439Z,22.80
2018-09-18T08:58:57.115Z,23.10
2018-09-18T09:01:26.282Z,23.10
2018-09-18T09:03:55.418Z,23.20
2018-09-18T09:06:24.749Z,23.30
2018-09-18T09:08:53.939Z,23.30
2018-09-18T09:11:22.979Z,23.30
2018-09-18T09:13:52.190Z,23.50
2018-09-18T09:16:21.267Z,23.50
2018-09-18T09:18:50.416Z,23.60
2018-09-18T09:21:19.723Z,23.60
2018-09-18T09:23:48.872Z,23.80
2018-09-18T09:26:18.015Z,23.80
2018-09-18T09:28:47.202Z,23.80
2018-09-18T09:31:16.954Z,23.90
2018-09-18T09:33:46.058Z,23.90
2018-09-18T09:36:15.664Z,24.00
2018-09-18T09:38:44.899Z,24.00
2018-09-18T09:41:14.049Z,24.20
2018-09-18T09:43:43.861Z,24.20
2018-09-18T09:46:13.555Z,24.30
2018-09-18T09:48:42.901Z,24.40
2018-09-18T09:51:12.094Z,24.50
2018-09-18T09:53:41.255Z,24.60
2018-09-18T09:56:10.392Z,24.70
2018-09-18T09:58:39.571Z,24.90
2018-09-18T10:01:14.110Z,24.90
2018-09-18T10:03:43.235Z,25.00
2018-09-18T10:06:12.440Z,25.00
2018-09-18T10:08:41.647Z,25.00
2018-09-18T10:11:10.791Z,25.10
2018-09-18T10:13:39.985Z,25.30
2018-09-18T10:16:09.121Z,25.50
2018-09-18T11:52:52.459Z,28.10
2018-09-18T12:07:45.294Z,28.70
2018-09-18T12:15:11.954Z,28.20
2018-09-18T12:17:41.081Z,28.30
2018-09-18T12:20:10.567Z,28.30
2018-09-18T12:22:39.728Z,28.40
2018-09-18T12:25:08.870Z,28.60
2018-09-18T12:27:38.009Z,28.70
2018-09-18T12:30:07.431Z,29.00
2018-09-18T12:35:05.375Z,28.80
2018-09-18T12:37:34.514Z,28.90
2018-09-18T12:40:03.710Z,29.10
2018-09-18T12:42:32.986Z,29.30
2018-09-18T12:45:02.030Z,29.40
2018-09-18T12:47:32.125Z,29.40
2018-09-18T12:50:01.625Z,29.40
2018-09-18T12:52:30.519Z,29.40
2018-09-18T12:59:57.259Z,29.60
2018-09-18T13:02:26.326Z,29.70
2018-09-18T13:04:55.518Z,29.80
2018-09-18T13:07:24.696Z,29.90
2018-09-18T13:09:53.887Z,29.90
2018-09-18T13:12:23.034Z,30.00
2018-09-18T13:14:52.199Z,29.80
2018-09-18T13:17:21.414Z,29.90
2018-09-18T13:19:50.708Z,30.00
2018-09-18T13:22:19.828Z,29.70
2018-09-18T13:24:49.114Z,29.50
2018-09-18T13:27:18.278Z,29.50
2018-09-18T13:29:47.420Z,29.50
2018-09-18T13:32:16.586Z,29.40
2018-09-18T13:34:45.741Z,29.70
2018-09-18T13:37:14.893Z,29.70
2018-09-18T13:54:36.594Z,30.00
2018-09-18T14:21:53.738Z,29.40
2018-09-18T14:26:51.681Z,29.20
2018-09-18T14:29:20.832Z,29.10
2018-09-18T14:31:50.010Z,29.10
2018-09-18T14:34:19.126Z,29.00
2018-09-18T14:36:48.275Z,29.00
2018-09-18T14:39:17.422Z,29.00
2018-09-18T14:41:46.633Z,29.10
2018-09-18T14:44:15.789Z,29.20
2018-09-18T14:46:44.957Z,29.30
2018-09-18T14:51:42.905Z,29.40
2018-09-18T14:56:40.760Z,29.50
2018-09-18T14:59:09.922Z,29.60
2018-09-18T15:01:39.065Z,29.40
2018-09-18T15:04:08.221Z,29.20
2018-09-18T15:06:37.334Z,29.10
2018-09-18T15:09:08.430Z,28.90
2018-09-18T15:11:37.634Z,28.80
2018-09-18T15:14:07.106Z,28.60
2018-09-18T15:16:36.410Z,28.30
2018-09-18T15:21:34.532Z,27.90
2018-09-18T15:24:03.615Z,27.90
2018-09-18T15:26:32.793Z,27.90
2018-09-18T15:29:01.927Z,27.80
2018-09-18T15:31:31.425Z,27.70
2018-09-18T15:34:00.678Z,27.80
2018-09-18T15:36:29.802Z,27.80
2018-09-18T15:39:02.870Z,27.70
2018-09-18T15:41:33.892Z,27.80
2018-09-18T15:44:11.224Z,27.70
2018-09-18T15:46:41.659Z,27.60
2018-09-18T15:49:14.688Z,27.60
2018-09-18T15:51:46.443Z,27.50
2018-09-18T15:54:19.993Z,27.50
2018-09-18T15:56:49.128Z,27.40
2018-09-18T15:59:18.278Z,27.40
2018-09-18T16:01:47.479Z,27.40
2018-09-18T16:04:16.674Z,27.30
2018-09-18T16:06:45.831Z,27.20
2018-09-18T16:09:15.003Z,27.20
2018-09-18T16:11:44.194Z,27.10
2018-09-18T16:14:13.337Z,27.20
2018-09-18T16:16:42.590Z,27.10
2018-09-18T16:19:11.768Z,27.00
2018-09-18T16:21:40.889Z,26.80
2018-09-18T16:24:10.081Z,26.90
2018-09-18T16:26:39.236Z,26.80
2018-09-18T16:29:08.363Z,26.80
2018-09-18T16:31:37.546Z,26.80
2018-09-18T16:34:06.820Z,26.80
2018-09-18T16:36:36.127Z,26.80
2018-09-18T16:39:06.143Z,26.70
2018-09-18T16:41:35.339Z,26.70
2018-09-18T16:44:04.525Z,26.80
2018-09-18T16:46:33.675Z,26.80
2018-09-18T16:49:03.810Z,26.70
2018-09-18T16:51:33.391Z,26.60
2018-09-18T16:54:02.544Z,26.50
2018-09-18T16:56:31.726Z,26.40
2018-09-18T16:59:01.001Z,26.40
2018-09-18T17:01:30.229Z,26.40
2018-09-18T17:03:59.486Z,26.30
2018-09-18T17:06:28.781Z,26.20
2018-09-18T17:08:57.971Z,26.20
2018-09-18T17:11:29.895Z,26.10
2018-09-18T17:13:59.238Z,26.10
2018-09-18T17:16:28.647Z,26.00
2018-09-18T17:18:57.729Z,25.80
2018-09-18T17:21:27.083Z,25.80
2018-09-18T17:23:56.326Z,25.80
2018-09-18T17:26:26.068Z,25.70
2018-09-18T17:28:55.332Z,25.60
2018-09-18T17:31:25.027Z,25.60
2018-09-18T17:33:54.199Z,25.60
2018-09-18T17:36:23.398Z,25.60
2018-09-18T17:38:52.631Z,25.40
2018-09-18T17:41:21.889Z,25.40
2018-09-18T17:43:51.109Z,25.30
2018-09-18T17:46:21.370Z,25.30
2018-09-18T17:48:50.762Z,25.20
2018-09-18T17:51:19.967Z,25.00
2018-09-18T17:53:49.177Z,24.90
2018-09-18T17:56:18.458Z,24.80
2018-09-18T17:58:47.970Z,24.80
2018-09-18T18:01:17.142Z,24.80
2018-09-18T18:03:46.597Z,24.70
2018-09-18T18:06:15.886Z,24.60
2018-09-18T18:08:45.111Z,24.60
2018-09-18T18:11:14.291Z,24.70
2018-09-18T18:13:43.515Z,24.60
2018-09-18T18:16:12.689Z,24.70
2018-09-18T18:18:42.186Z,24.80
2018-09-18T18:21:11.524Z,24.70
2018-09-18T18:23:40.983Z,24.70
2018-09-18T18:26:10.266Z,24.50
2018-09-18T18:28:39.553Z,24.40
2018-09-18T18:31:08.978Z,24.40
2018-09-18T18:33:38.301Z,24.40
2018-09-18T18:36:07.640Z,24.30
2018-09-18T18:38:36.966Z,24.30
2018-09-18T18:41:06.511Z,24.20
2018-09-18T18:43:35.818Z,24.30
2018-09-18T18:46:05.384Z,24.30
2018-09-18T18:48:34.814Z,24.30
2018-09-18T18:51:04.233Z,24.20
2018-09-18T18:53:33.574Z,24.30
2018-09-18T18:56:02.820Z,24.30
2018-09-18T18:58:32.252Z,24.30
2018-09-18T19:01:01.671Z,24.10
2018-09-18T19:03:37.643Z,24.10
2018-09-18T19:06:07.003Z,24.20
2018-09-18T19:08:36.356Z,24.30
2018-09-18T19:11:07.031Z,24.20
2018-09-18T19:13:36.186Z,24.10
2018-09-18T19:16:05.365Z,24.00
2018-09-18T19:18:34.630Z,24.00
2018-09-18T19:21:03.893Z,24.10
2018-09-18T19:23:33.168Z,24.00
2018-09-18T19:26:02.337Z,23.90
2018-09-18T19:28:35.159Z,24.00
2018-09-18T19:31:04.655Z,23.90
2018-09-18T19:33:33.879Z,23.80
2018-09-18T19:36:03.130Z,23.70
2018-09-18T19:38:32.249Z,23.70
2018-09-18T19:41:01.457Z,23.70
2018-09-18T19:43:30.650Z,23.60
2018-09-18T19:45:59.834Z,23.60
2018-09-18T19:48:29.146Z,23.50
2018-09-18T19:50:58.371Z,23.50
2018-09-18T19:53:28.256Z,23.50
2018-09-18T19:55:57.428Z,23.50
2018-09-18T19:58:26.658Z,23.50
2018-09-18T20:00:55.880Z,23.40
2018-09-18T20:03:25.158Z,23.40
2018-09-18T20:05:54.249Z,23.30
2018-09-18T20:08:23.501Z,23.40
2018-09-18T20:10:52.852Z,23.50
2018-09-18T20:13:22.076Z,23.40
2018-09-18T20:15:51.266Z,23.30
2018-09-18T20:18:20.475Z,23.20
2018-09-18T20:20:49.715Z,23.10
2018-09-18T20:23:18.838Z,23.10
2018-09-18T20:25:48.043Z,23.00
2018-09-18T20:28:17.247Z,22.90
2018-09-18T20:30:46.451Z,22.90
2018-09-18T20:33:15.682Z,22.90
2018-09-18T20:35:44.932Z,22.90
2018-09-18T20:38:14.767Z,22.90
2018-09-18T20:40:44.145Z,23.00
2018-09-18T20:43:13.365Z,23.10
2018-09-18T20:45:42.707Z,23.10
2018-09-18T20:48:12.069Z,23.10
2018-09-18T20:50:41.991Z,23.20
2018-09-18T20:53:11.287Z,23.10
2018-09-18T20:55:40.504Z,23.00
2018-09-18T20:58:11.995Z,23.00
2018-09-18T21:00:41.683Z,23.10
2018-09-18T21:03:10.968Z,23.00
2018-09-18T21:05:40.229Z,22.90
2018-09-18T21:08:09.416Z,22.90
2018-09-18T21:10:38.577Z,22.90
2018-09-18T21:13:07.854Z,22.90
2018-09-18T21:15:37.056Z,22.90
2018-09-18T21:18:06.252Z,22.90
2018-09-18T21:20:35.500Z,23.10
2018-09-18T21:23:04.726Z,23.00
2018-09-18T21:26:12.032Z,23.00
2018-09-18T21:28:41.258Z,23.00
2018-09-18T21:31:10.466Z,23.00
2018-09-18T21:33:39.720Z,22.80
2018-09-18T21:36:09.059Z,22.90
2018-09-18T21:38:38.237Z,22.90
2018-09-18T21:41:07.407Z,22.80
2018-09-18T21:43:36.573Z,22.80
2018-09-18T21:46:05.753Z,22.80
2018-09-18T21:48:34.923Z,22.70
2018-09-18T21:51:04.130Z,22.60
2018-09-18T21:53:33.313Z,22.80
2018-09-18T21:56:02.506Z,22.70
2018-09-18T21:58:31.684Z,22.70
2018-09-18T22:01:03.741Z,22.70
2018-09-18T22:03:33.255Z,22.70
2018-09-18T22:06:02.905Z,22.70
2018-09-18T22:08:32.100Z,22.50
2018-09-18T22:11:01.250Z,22.40
2018-09-18T22:13:30.412Z,22.30
2018-09-18T22:15:59.582Z,22.40
2018-09-18T22:18:28.727Z,22.40
2018-09-18T22:20:57.894Z,22.40
2018-09-18T22:23:27.107Z,22.40
2018-09-18T22:25:56.261Z,22.50
2018-09-18T22:28:25.600Z,22.40
2018-09-18T22:30:54.710Z,22.30
2018-09-18T22:33:23.950Z,22.30
2018-09-18T22:35:53.094Z,22.20
2018-09-18T22:38:22.282Z,22.30
2018-09-18T22:40:51.503Z,22.10
2018-09-18T22:43:20.649Z,22.20
2018-09-18T22:45:49.839Z,22.30
2018-09-18T22:48:19.193Z,22.40
2018-09-18T22:50:48.399Z,22.50
2018-09-18T22:53:17.509Z,22.60
2018-09-18T22:55:46.710Z,22.50
2018-09-18T22:58:16.123Z,22.40
2018-09-18T23:00:45.309Z,22.30
2018-09-18T23:03:14.438Z,22.00
2018-09-18T23:05:44.018Z,21.90
2018-09-18T23:08:13.519Z,22.00
2018-09-18T23:10:43.100Z,22.10
2018-09-18T23:13:12.597Z,22.10
2018-09-18T23:15:41.830Z,22.00
2018-09-18T23:18:10.963Z,21.90
2018-09-18T23:20:40.115Z,21.70
2018-09-18T23:23:10.502Z,21.60
2018-09-18T23:25:39.694Z,21.60
2018-09-18T23:28:08.788Z,21.80
2018-09-18T23:30:37.886Z,21.90
2018-09-18T23:33:07.037Z,21.90
2018-09-18T23:35:36.138Z,21.80
2018-09-18T23:38:05.346Z,21.80
2018-09-18T23:40:34.540Z,21.50
2018-09-18T23:43:03.717Z,21.60
2018-09-18T23:45:32.850Z,21.40
2018-09-18T23:48:02.061Z,21.30
2018-09-18T23:50:31.256Z,21.40
2018-09-18T23:53:00.425Z,21.50
2018-09-18T23:55:29.696Z,21.60
2018-09-18T23:57:58.863Z,21.60
